createdAt,value
2017-08-25T00:01:47.885Z,5.90
2017-08-25T00:04:16.264Z,7.33
2017-08-25T00:06:44.509Z,5.90
2017-08-25T00:09:12.050Z,6.27
2017-08-25T00:11:39.550Z,5.90
2017-08-25T00:14:07.181Z,6.50
2017-08-25T00:16:35.219Z,6.43
2017-08-25T00:19:02.888Z,7.27
2017-08-25T00:21:30.374Z,6.80
2017-08-25T00:23:58.390Z,7.07
2017-08-25T00:26:25.912Z,6.90
2017-08-25T00:28:53.437Z,5.93
2017-08-25T00:31:20.926Z,6.67
2017-08-25T00:33:48.433Z,5.67
2017-08-25T00:36:15.911Z,7.50
2017-08-25T00:38:43.403Z,6.87
2017-08-25T00:41:10.915Z,6.60
2017-08-25T00:43:38.398Z,8.37
2017-08-25T00:46:05.972Z,7.20
2017-08-25T00:48:33.586Z,8.10
2017-08-25T00:51:01.088Z,7.23
2017-08-25T00:53:28.561Z,7.57
2017-08-25T00:55:56.079Z,6.93
2017-08-25T00:58:23.570Z,7.50
2017-08-25T01:00:51.061Z,7.70
2017-08-25T01:03:18.989Z,8.27
2017-08-25T01:05:46.561Z,7.30
2017-08-25T01:08:14.042Z,6.30
2017-08-25T01:10:41.557Z,7.63
2017-08-25T01:13:09.050Z,8.00
2017-08-25T01:15:36.534Z,7.53
2017-08-25T01:18:04.037Z,8.27
2017-08-25T01:20:31.547Z,8.23
2017-08-25T01:22:59.074Z,7.57
2017-08-25T01:25:26.591Z,7.70
2017-08-25T01:27:54.071Z,7.23
2017-08-25T01:30:21.565Z,9.50
2017-08-25T01:32:49.086Z,8.10
2017-08-25T01:35:16.578Z,8.83
2017-08-25T01:37:44.067Z,8.50
2017-08-25T01:40:11.567Z,8.20
2017-08-25T01:42:39.054Z,8.77
2017-08-25T01:45:06.563Z,8.83
2017-08-25T01:47:34.076Z,8.30
2017-08-25T01:50:01.572Z,8.77
2017-08-25T01:52:29.069Z,5.93
2017-08-25T01:54:56.595Z,7.10
2017-08-25T01:57:24.111Z,6.37
2017-08-25T01:59:51.632Z,8.40
2017-08-25T02:02:19.155Z,9.30
2017-08-25T02:04:47.905Z,7.73
2017-08-25T02:07:15.397Z,8.90
2017-08-25T02:09:42.907Z,8.83
2017-08-25T02:12:10.402Z,9.20
2017-08-25T02:14:37.907Z,9.70
2017-08-25T02:17:05.421Z,8.63
2017-08-25T02:19:32.905Z,9.77
2017-08-25T02:22:00.407Z,8.90
2017-08-25T02:24:27.923Z,8.53
2017-08-25T02:26:55.418Z,9.47
2017-08-25T02:29:23.345Z,6.30
2017-08-25T02:31:50.900Z,11.10
2017-08-25T02:34:18.442Z,9.10
2017-08-25T02:36:45.947Z,9.90
2017-08-25T02:39:13.504Z,10.47
2017-08-25T02:41:40.987Z,10.40
2017-08-25T02:44:08.474Z,11.50
2017-08-25T02:46:35.990Z,11.00
2017-08-25T02:49:03.464Z,9.63
2017-08-25T02:51:31.411Z,11.97
2017-08-25T02:53:58.936Z,13.20
2017-08-25T02:56:26.482Z,10.07
2017-08-25T02:58:53.969Z,9.97
2017-08-25T03:01:21.476Z,12.10
2017-08-25T03:03:49.011Z,12.60
2017-08-25T03:06:16.503Z,11.97
2017-08-25T03:08:44.006Z,11.90
2017-08-25T03:11:11.502Z,11.40
2017-08-25T03:13:38.987Z,13.63
2017-08-25T03:16:06.487Z,11.40
2017-08-25T03:18:33.963Z,12.00
2017-08-25T03:21:01.450Z,11.20
2017-08-25T03:23:28.952Z,12.97
2017-08-25T03:25:56.429Z,11.13
2017-08-25T03:28:23.915Z,12.77
2017-08-25T03:30:51.409Z,11.93
2017-08-25T03:33:18.894Z,10.50
2017-08-25T03:35:46.391Z,12.10
2017-08-25T03:38:13.906Z,11.43
2017-08-25T03:40:41.396Z,9.83
2017-08-25T03:43:08.891Z,11.10
2017-08-25T03:45:36.601Z,9.57
2017-08-25T03:48:04.083Z,8.87
2017-08-25T03:50:31.562Z,8.20
2017-08-25T03:52:59.073Z,7.03
2017-08-25T03:55:26.564Z,6.93
2017-08-25T03:57:54.037Z,6.57
2017-08-25T04:00:21.545Z,7.40
2017-08-25T04:02:49.120Z,7.07
2017-08-25T04:05:16.628Z,6.30
2017-08-25T04:07:44.125Z,5.87
2017-08-25T04:10:11.642Z,6.57
2017-08-25T04:12:39.157Z,6.80
2017-08-25T04:15:06.679Z,6.77
2017-08-25T04:17:34.163Z,6.30
2017-08-25T04:20:01.649Z,6.37
2017-08-25T04:22:29.176Z,6.90
2017-08-25T04:24:56.680Z,6.70
2017-08-25T04:27:24.158Z,6.47
2017-08-25T04:29:51.675Z,6.33
2017-08-25T04:32:19.162Z,6.23
2017-08-25T04:34:46.655Z,7.40
2017-08-25T04:37:14.276Z,6.50
2017-08-25T04:39:41.760Z,6.00
2017-08-25T04:42:09.246Z,6.97
2017-08-25T04:44:36.754Z,6.80
2017-08-25T04:47:04.229Z,6.50
2017-08-25T04:49:31.744Z,6.80
2017-08-25T04:51:59.322Z,6.90
2017-08-25T04:54:26.819Z,6.77
2017-08-25T04:56:54.298Z,6.40
2017-08-25T04:59:22.579Z,6.23
2017-08-25T05:01:50.053Z,6.50
2017-08-25T05:04:17.544Z,6.87
2017-08-25T05:06:45.060Z,6.67
2017-08-25T05:09:12.556Z,7.03
2017-08-25T05:11:40.047Z,6.20
2017-08-25T05:14:08.442Z,5.40
2017-08-25T05:16:35.931Z,6.17
2017-08-25T05:19:03.419Z,6.30
2017-08-25T05:21:30.968Z,5.80
2017-08-25T05:23:58.467Z,5.27
2017-08-25T05:26:25.952Z,6.57
2017-08-25T05:28:53.475Z,5.20
2017-08-25T05:31:20.953Z,5.27
2017-08-25T05:33:48.439Z,7.00
2017-08-25T05:36:15.971Z,7.33
2017-08-25T05:38:43.463Z,5.33
2017-08-25T05:41:10.979Z,6.03
2017-08-25T05:43:38.479Z,5.30
2017-08-25T05:46:05.961Z,5.70
2017-08-25T05:48:33.455Z,6.17
2017-08-25T05:51:00.972Z,5.13
2017-08-25T05:53:28.543Z,6.13
2017-08-25T05:55:56.162Z,6.03
2017-08-25T05:58:23.768Z,5.17
2017-08-25T06:00:51.390Z,5.27
2017-08-25T06:03:18.869Z,6.90
2017-08-25T06:05:46.377Z,5.50
2017-08-25T06:08:13.871Z,5.23
2017-08-25T06:10:41.345Z,6.30
2017-08-25T06:13:08.861Z,6.60
2017-08-25T06:15:36.358Z,5.90
2017-08-25T06:18:03.874Z,7.37
2017-08-25T06:20:31.403Z,6.90
2017-08-25T06:22:58.885Z,7.73
2017-08-25T06:25:26.810Z,8.03
2017-08-25T06:27:54.328Z,6.40
2017-08-25T06:30:21.819Z,8.23
2017-08-25T06:32:49.311Z,7.53
2017-08-25T06:35:16.996Z,6.80
2017-08-25T06:37:44.494Z,10.47
2017-08-25T06:40:11.987Z,11.00
2017-08-25T06:42:39.719Z,9.03
2017-08-25T06:45:07.624Z,13.30
2017-08-25T06:47:35.114Z,15.80
2017-08-25T06:50:02.655Z,14.80
2017-08-25T06:52:30.170Z,13.17
2017-08-25T06:54:57.675Z,11.90
2017-08-25T06:57:25.198Z,15.27
2017-08-25T06:59:52.693Z,9.67
2017-08-25T07:02:20.492Z,12.20
2017-08-25T07:04:48.012Z,11.23
2017-08-25T07:07:15.546Z,12.83
2017-08-25T07:09:43.023Z,12.03
2017-08-25T07:12:10.565Z,8.70
2017-08-25T07:14:38.150Z,11.20
2017-08-25T07:17:05.635Z,9.07
2017-08-25T07:19:33.604Z,10.63
2017-08-25T07:22:01.314Z,8.70
2017-08-25T07:24:29.114Z,7.80
2017-08-25T07:26:56.645Z,8.47
2017-08-25T07:29:24.168Z,6.20
2017-08-25T07:31:51.717Z,8.70
2017-08-25T07:34:21.185Z,8.07
2017-08-25T07:36:49.020Z,8.30
2017-08-25T07:39:16.738Z,8.43
2017-08-25T07:41:45.206Z,6.30
2017-08-25T07:44:12.750Z,7.20
2017-08-25T07:46:40.334Z,7.13
2017-08-25T07:49:07.842Z,7.00
2017-08-25T07:51:35.369Z,6.83
2017-08-25T07:54:02.865Z,7.80
2017-08-25T07:56:30.380Z,8.40
2017-08-25T07:58:58.192Z,5.93
2017-08-25T08:01:25.924Z,6.93
2017-08-25T08:03:53.809Z,6.80
2017-08-25T08:06:21.365Z,7.70
2017-08-25T08:08:49.222Z,7.83
2017-08-25T08:11:16.902Z,8.40
2017-08-25T08:13:44.413Z,7.53
2017-08-25T08:16:11.912Z,7.10
2017-08-25T08:18:39.439Z,7.87
2017-08-25T08:21:07.161Z,6.40
2017-08-25T08:23:34.663Z,6.47
2017-08-25T08:26:02.417Z,5.50
2017-08-25T08:28:29.997Z,8.13
2017-08-25T08:30:57.496Z,6.13
2017-08-25T08:33:25.190Z,6.63
2017-08-25T08:35:53.487Z,5.90
2017-08-25T08:38:21.149Z,6.23
2017-08-25T08:40:50.406Z,5.83
2017-08-25T08:43:18.210Z,7.37
2017-08-25T08:45:46.902Z,6.00
2017-08-25T08:48:14.832Z,7.93
2017-08-25T08:50:43.605Z,6.00
2017-08-25T08:53:11.323Z,7.07
2017-08-25T08:55:39.203Z,6.03
2017-08-25T08:58:07.269Z,6.97
2017-08-25T09:00:35.233Z,7.40
2017-08-25T09:03:03.424Z,6.70
2017-08-25T09:05:37.076Z,6.57
2017-08-25T09:08:05.335Z,6.93
2017-08-25T09:10:33.238Z,6.40
2017-08-25T09:13:00.719Z,5.17
2017-08-25T09:15:28.427Z,7.20
2017-08-25T09:17:56.100Z,8.23
2017-08-25T09:20:23.634Z,6.27
2017-08-25T09:22:51.717Z,7.33
2017-08-25T09:25:19.681Z,9.03
2017-08-25T09:27:47.457Z,6.37
2017-08-25T09:30:15.489Z,6.87
2017-08-25T09:32:43.351Z,5.40
2017-08-25T09:35:12.126Z,5.93
2017-08-25T09:37:40.523Z,6.13
2017-08-25T09:40:08.388Z,6.17
2017-08-25T09:42:36.035Z,7.77
2017-08-25T09:45:04.376Z,6.43
2017-08-25T09:47:32.534Z,5.70
2017-08-25T09:50:00.492Z,6.47
2017-08-25T09:52:28.659Z,5.33
2017-08-25T09:54:57.763Z,7.47
2017-08-25T09:57:25.379Z,6.60
2017-08-25T09:59:53.314Z,6.80
2017-08-25T10:02:20.876Z,5.50
2017-08-25T10:04:49.025Z,6.37
2017-08-25T10:07:16.976Z,7.73
2017-08-25T10:09:44.485Z,6.10
2017-08-25T10:12:12.344Z,6.50
2017-08-25T10:14:40.530Z,5.73
2017-08-25T10:17:08.555Z,5.97
2017-08-25T10:19:36.091Z,4.50
2017-08-25T10:22:03.791Z,5.40
2017-08-25T10:24:31.587Z,5.07
2017-08-25T10:26:59.256Z,6.20
2017-08-25T10:29:27.025Z,5.70
2017-08-25T10:31:54.630Z,4.93
2017-08-25T10:34:47.098Z,4.77
2017-08-25T10:37:40.808Z,5.40
2017-08-25T10:40:20.283Z,4.60
2017-08-25T10:42:59.776Z,5.17
2017-08-25T10:45:27.318Z,5.20
2017-08-25T10:47:54.813Z,5.07
2017-08-25T10:50:22.536Z,6.60
2017-08-25T10:52:50.033Z,5.40
2017-08-25T10:55:17.535Z,5.50
2017-08-25T10:57:45.019Z,5.50
2017-08-25T11:00:12.531Z,6.67
2017-08-25T11:02:40.036Z,5.07
2017-08-25T11:05:07.523Z,5.90
2017-08-25T11:07:35.032Z,5.30
2017-08-25T11:10:02.531Z,5.73
2017-08-25T11:12:30.018Z,5.00
2017-08-25T11:14:57.531Z,5.73
2017-08-25T11:17:25.105Z,5.50
2017-08-25T11:19:52.589Z,5.27
2017-08-25T11:22:20.102Z,6.23
2017-08-25T11:24:47.586Z,5.70
2017-08-25T11:27:15.086Z,5.70
2017-08-25T11:29:42.606Z,5.30
2017-08-25T11:32:10.089Z,5.27
2017-08-25T11:34:37.584Z,5.40
2017-08-25T11:37:05.086Z,5.70
2017-08-25T11:39:32.579Z,6.23
2017-08-25T11:42:00.053Z,5.30
2017-08-25T11:44:27.623Z,6.23
2017-08-25T11:46:55.109Z,6.33
2017-08-25T11:49:22.591Z,5.40
2017-08-25T11:51:50.116Z,5.20
2017-08-25T11:54:17.610Z,5.93
2017-08-25T11:56:45.094Z,6.37
2017-08-25T11:59:12.698Z,5.40
2017-08-25T12:01:40.182Z,5.30
2017-08-25T12:04:07.658Z,5.67
2017-08-25T12:06:35.176Z,5.47
2017-08-25T12:09:02.678Z,5.90
2017-08-25T12:11:30.162Z,5.67
2017-08-25T12:13:57.692Z,5.00
2017-08-25T12:16:25.175Z,5.10
2017-08-25T12:18:52.649Z,6.47
2017-08-25T12:21:20.159Z,5.37
2017-08-25T12:23:47.647Z,5.60
2017-08-25T12:26:15.117Z,6.77
2017-08-25T12:28:42.620Z,5.20
2017-08-25T12:31:10.112Z,5.57
2017-08-25T12:33:37.599Z,5.80
2017-08-25T12:36:05.107Z,4.90
2017-08-25T12:38:32.601Z,5.10
2017-08-25T12:41:00.079Z,5.37
2017-08-25T12:43:27.645Z,5.20
2017-08-25T12:45:55.127Z,4.93
2017-08-25T12:48:22.614Z,5.17
2017-08-25T12:50:50.124Z,4.37
2017-08-25T12:53:17.611Z,4.10
2017-08-25T12:55:45.082Z,4.00
2017-08-25T12:58:12.600Z,5.07
2017-08-25T13:00:40.082Z,5.10
2017-08-25T13:03:07.563Z,5.60
2017-08-25T13:05:35.071Z,4.83
2017-08-25T13:08:02.548Z,4.97
2017-08-25T13:10:30.026Z,5.10
2017-08-25T13:12:57.526Z,4.07
2017-08-25T13:15:25.016Z,4.33
2017-08-25T13:17:52.500Z,4.90
2017-08-25T13:20:20.006Z,5.10
2017-08-25T13:22:47.487Z,4.17
2017-08-25T13:25:14.974Z,4.90
2017-08-25T13:27:42.481Z,4.53
2017-08-25T13:30:09.981Z,4.40
2017-08-25T13:32:37.479Z,4.40
2017-08-25T13:35:04.991Z,4.73
2017-08-25T13:37:32.472Z,4.80
2017-08-25T13:39:59.954Z,4.90
2017-08-25T13:42:27.477Z,4.90
2017-08-25T13:44:54.983Z,5.17
2017-08-25T13:47:23.242Z,4.20
2017-08-25T13:49:50.756Z,4.60
2017-08-25T13:52:18.241Z,4.10
2017-08-25T13:54:45.731Z,3.73
2017-08-25T13:57:13.252Z,3.50
2017-08-25T13:59:40.739Z,4.33
2017-08-25T14:02:08.232Z,4.00
2017-08-25T14:04:35.815Z,3.90
2017-08-25T14:07:03.304Z,4.30
2017-08-25T14:09:30.781Z,4.47
2017-08-25T14:11:58.289Z,4.47
2017-08-25T14:14:25.767Z,4.60
2017-08-25T14:16:53.255Z,4.10
2017-08-25T14:19:20.783Z,4.57
2017-08-25T14:21:48.257Z,4.30
2017-08-25T14:24:15.735Z,3.77
2017-08-25T14:26:43.242Z,5.40
2017-08-25T14:29:10.731Z,4.90
2017-08-25T14:31:38.646Z,4.47
2017-08-25T14:34:06.465Z,4.67
2017-08-25T14:36:34.702Z,4.40
2017-08-25T14:39:02.890Z,4.20
2017-08-25T14:41:30.840Z,3.90
2017-08-25T14:43:58.525Z,6.03
2017-08-25T14:46:26.600Z,4.70
2017-08-25T14:48:54.681Z,3.57
2017-08-25T14:51:22.542Z,4.43
2017-08-25T14:53:50.026Z,4.77
2017-08-25T14:56:17.639Z,4.87
2017-08-25T14:58:45.134Z,4.57
2017-08-25T15:01:12.609Z,4.30
2017-08-25T15:03:40.547Z,4.00
2017-08-25T15:06:08.009Z,3.70
2017-08-25T15:08:35.494Z,4.97
2017-08-25T15:11:03.009Z,4.30
2017-08-25T15:13:30.509Z,3.40
2017-08-25T15:15:57.985Z,5.00
2017-08-25T15:18:25.492Z,4.73
2017-08-25T15:20:52.971Z,4.13
2017-08-25T15:23:20.458Z,4.23
2017-08-25T15:25:47.959Z,4.40
2017-08-25T15:28:15.445Z,4.17
2017-08-25T15:30:42.931Z,4.67
2017-08-25T15:33:10.440Z,3.80
2017-08-25T15:35:37.918Z,3.90
2017-08-25T15:38:05.394Z,4.30
2017-08-25T15:40:32.899Z,4.50
2017-08-25T15:43:00.405Z,4.20
2017-08-25T15:45:27.899Z,3.30
2017-08-25T15:47:55.402Z,4.27
2017-08-25T15:50:22.893Z,4.90
2017-08-25T15:52:50.390Z,5.30
2017-08-25T15:55:17.903Z,4.77
2017-08-25T15:57:45.396Z,3.80
2017-08-25T16:00:13.312Z,4.83
2017-08-25T16:02:41.424Z,7.17
2017-08-25T16:05:09.596Z,3.90
2017-08-25T16:07:37.193Z,4.10
2017-08-25T16:10:05.244Z,4.77
2017-08-25T16:12:32.738Z,4.57
2017-08-25T16:15:00.233Z,4.60
2017-08-25T16:17:27.746Z,3.87
2017-08-25T16:19:55.229Z,4.77
2017-08-25T16:22:22.708Z,4.70
2017-08-25T16:24:50.214Z,5.17
2017-08-25T16:27:17.696Z,4.67
2017-08-25T16:29:45.194Z,5.20
2017-08-25T16:32:12.719Z,5.47
2017-08-25T16:34:40.737Z,4.53
2017-08-25T16:37:08.332Z,5.73
2017-08-25T16:39:35.940Z,4.63
2017-08-25T16:42:03.443Z,5.00
2017-08-25T16:44:31.476Z,4.43
2017-08-25T16:46:58.982Z,6.37
2017-08-25T16:49:26.465Z,4.93
2017-08-25T16:51:53.996Z,5.13
2017-08-25T16:54:21.591Z,5.07
2017-08-25T16:56:49.066Z,4.23
2017-08-25T16:59:16.550Z,4.17
2017-08-25T17:01:44.057Z,5.17
2017-08-25T17:04:11.538Z,5.50
2017-08-25T17:06:39.014Z,5.40
2017-08-25T17:09:06.526Z,6.30
2017-08-25T17:11:34.006Z,4.47
2017-08-25T17:14:01.485Z,5.13
2017-08-25T17:16:29.001Z,4.60
2017-08-25T17:18:56.504Z,4.93
2017-08-25T17:21:23.990Z,4.73
2017-08-25T17:23:51.519Z,5.20
2017-08-25T17:26:19.000Z,4.67
2017-08-25T17:28:46.494Z,4.93
2017-08-25T17:31:14.004Z,4.80
2017-08-25T17:33:41.487Z,5.83
2017-08-25T17:36:09.511Z,5.30
2017-08-25T17:38:37.102Z,6.90
2017-08-25T17:41:05.514Z,6.37
2017-08-25T17:43:33.601Z,5.50
2017-08-25T17:46:01.408Z,7.50
2017-08-25T17:48:29.433Z,5.70
2017-08-25T17:50:57.346Z,5.53
2017-08-25T17:53:25.046Z,5.23
2017-08-25T17:55:53.903Z,6.07
2017-08-25T17:58:21.905Z,6.90
2017-08-25T18:00:50.036Z,7.10
2017-08-25T18:03:17.659Z,6.40
2017-08-25T18:05:45.270Z,7.30
2017-08-25T18:08:13.243Z,5.80
2017-08-25T18:10:42.657Z,6.60
2017-08-25T18:13:10.583Z,6.57
2017-08-25T18:15:38.874Z,6.10
2017-08-25T18:18:07.178Z,6.53
2017-08-25T18:20:35.074Z,6.50
2017-08-25T18:23:03.123Z,6.80
2017-08-25T18:25:31.475Z,6.10
2017-08-25T18:27:59.217Z,6.50
2017-08-25T18:30:27.187Z,7.00
2017-08-25T18:32:55.179Z,5.80
2017-08-25T18:35:22.943Z,6.60
2017-08-25T18:37:50.458Z,6.17
2017-08-25T18:40:17.933Z,6.70
2017-08-25T18:42:45.420Z,7.50
2017-08-25T18:45:12.947Z,6.30
2017-08-25T18:47:40.452Z,7.90
2017-08-25T18:50:07.942Z,6.23
2017-08-25T18:52:35.459Z,9.03
2017-08-25T18:55:02.943Z,7.73
2017-08-25T18:57:30.444Z,8.07
2017-08-25T18:59:57.959Z,6.70
2017-08-25T19:02:25.443Z,6.27
2017-08-25T19:04:52.939Z,6.60
2017-08-25T19:07:20.455Z,7.33
2017-08-25T19:09:47.937Z,6.20
2017-08-25T19:12:15.418Z,7.67
2017-08-25T19:14:43.006Z,7.00
2017-08-25T19:17:10.503Z,6.90
2017-08-25T19:19:37.990Z,8.03
2017-08-25T19:22:05.507Z,5.80
2017-08-25T19:24:33.003Z,5.60
2017-08-25T19:27:00.487Z,7.90
2017-08-25T19:29:28.009Z,6.63
2017-08-25T19:31:55.502Z,8.73
2017-08-25T19:34:22.994Z,7.00
2017-08-25T19:36:50.505Z,7.67
2017-08-25T19:39:17.999Z,6.57
2017-08-25T19:41:45.482Z,7.50
2017-08-25T19:44:12.999Z,7.10
2017-08-25T19:46:40.474Z,6.37
2017-08-25T19:49:07.959Z,6.73
2017-08-25T19:51:35.475Z,5.90
2017-08-25T19:54:02.967Z,6.60
2017-08-25T19:56:30.457Z,6.60
2017-08-25T19:58:57.969Z,7.50
2017-08-25T20:01:25.458Z,6.93
2017-08-25T20:03:58.915Z,6.40
2017-08-25T20:06:26.405Z,6.67
2017-08-25T20:08:53.894Z,6.37
2017-08-25T20:11:21.390Z,6.40
2017-08-25T20:13:48.882Z,4.87
2017-08-25T20:16:16.375Z,6.23
2017-08-25T20:18:43.885Z,6.50
2017-08-25T20:21:11.370Z,7.83
2017-08-25T20:23:38.866Z,5.93
2017-08-25T20:26:06.365Z,6.33
2017-08-25T20:28:33.846Z,6.60
2017-08-25T20:31:01.331Z,6.07
2017-08-25T20:33:28.834Z,5.47
2017-08-25T20:35:56.318Z,5.93
2017-08-25T20:38:23.804Z,6.13
2017-08-25T20:40:51.315Z,6.00
2017-08-25T20:43:18.790Z,5.87
2017-08-25T20:45:46.278Z,5.67
2017-08-25T20:48:13.790Z,5.70
2017-08-25T20:50:41.283Z,5.80
2017-08-25T20:53:08.763Z,5.53
2017-08-25T20:55:36.265Z,6.37
2017-08-25T20:58:03.762Z,5.07
2017-08-25T21:00:31.251Z,6.23
2017-08-25T21:02:58.767Z,6.20
2017-08-25T21:05:26.255Z,5.40
2017-08-25T21:07:53.749Z,6.13
2017-08-25T21:10:21.267Z,5.53
2017-08-25T21:12:48.764Z,6.30
2017-08-25T21:15:16.261Z,6.20
2017-08-25T21:17:43.762Z,6.27
2017-08-25T21:20:11.239Z,6.00
2017-08-25T21:22:38.737Z,6.50
2017-08-25T21:25:06.238Z,7.10
2017-08-25T21:27:33.734Z,6.53
2017-08-25T21:30:01.219Z,5.93
2017-08-25T21:32:28.720Z,6.50
2017-08-25T21:34:56.209Z,5.73
2017-08-25T21:37:23.678Z,5.67
2017-08-25T21:39:51.190Z,5.23
2017-08-25T21:42:18.680Z,6.17
2017-08-25T21:44:46.154Z,6.10
2017-08-25T21:47:13.664Z,6.87
2017-08-25T21:49:41.153Z,6.33
2017-08-25T21:52:08.639Z,6.00
2017-08-25T21:54:36.146Z,6.33
2017-08-25T21:57:03.654Z,5.93
2017-08-25T21:59:31.136Z,5.97
2017-08-25T22:01:58.644Z,6.50
2017-08-25T22:04:26.158Z,6.83
2017-08-25T22:06:53.634Z,6.50
2017-08-25T22:09:21.141Z,6.90
2017-08-25T22:11:48.612Z,6.67
2017-08-25T22:14:16.090Z,6.63
2017-08-25T22:16:43.587Z,6.80
2017-08-25T22:19:11.071Z,6.77
2017-08-25T22:21:38.559Z,7.33
2017-08-25T22:24:06.079Z,6.47
2017-08-25T22:26:33.566Z,6.80
2017-08-25T22:29:01.050Z,6.70
2017-08-25T22:31:28.567Z,6.40
2017-08-25T22:33:56.044Z,5.70
2017-08-25T22:36:23.544Z,5.60
2017-08-25T22:38:51.048Z,6.43
2017-08-25T22:41:18.531Z,5.93
2017-08-25T22:43:46.031Z,6.73
2017-08-25T22:46:13.538Z,5.37
2017-08-25T22:48:41.026Z,5.33
2017-08-25T22:51:08.506Z,5.80
2017-08-25T22:53:36.015Z,5.70
2017-08-25T22:56:03.509Z,5.87
2017-08-25T22:58:31.003Z,5.73
2017-08-25T23:00:58.516Z,6.77
2017-08-25T23:03:26.004Z,6.77
2017-08-25T23:05:53.485Z,6.87
2017-08-25T23:08:21.007Z,7.00
2017-08-25T23:10:48.484Z,7.37
2017-08-25T23:13:15.960Z,7.17
2017-08-25T23:15:43.477Z,7.30
2017-08-25T23:18:10.952Z,6.40
2017-08-25T23:20:38.435Z,5.73
2017-08-25T23:23:05.943Z,6.83
2017-08-25T23:25:33.430Z,5.87
2017-08-25T23:28:00.911Z,5.90
2017-08-25T23:30:28.427Z,5.83
2017-08-25T23:32:55.915Z,5.97
2017-08-25T23:35:23.393Z,5.47
2017-08-25T23:37:50.908Z,5.73
2017-08-25T23:40:18.413Z,6.47
2017-08-25T23:42:45.908Z,6.07
2017-08-25T23:45:13.419Z,5.03
2017-08-25T23:47:40.898Z,5.37
2017-08-25T23:50:08.380Z,5.50
2017-08-25T23:52:35.896Z,5.30
2017-08-25T23:55:03.391Z,5.30
2017-08-25T23:57:30.878Z,5.30
2017-08-25T23:59:58.384Z,5.67
